createdAt,value
2022-09-25T00:02:06.888Z,13.49
2022-09-25T00:04:34.633Z,13.51
2022-09-25T00:07:03.797Z,13.51
2022-09-25T00:09:31.454Z,13.55
2022-09-25T00:11:59.164Z,13.53
2022-09-25T00:14:26.889Z,13.55
2022-09-25T00:16:54.574Z,13.55
2022-09-25T00:19:41.204Z,13.57
2022-09-25T00:22:10.266Z,13.54
2022-09-25T00:24:37.949Z,13.54
2022-09-25T00:27:08.452Z,13.53
2022-09-25T00:29:38.621Z,13.55
2022-09-25T00:32:07.765Z,13.60
2022-09-25T00:34:35.437Z,13.57
2022-09-25T00:37:03.111Z,13.57
2022-09-25T00:39:32.354Z,13.55
2022-09-25T00:42:00.199Z,13.55
2022-09-25T00:45:00.993Z,13.54
2022-09-25T00:47:53.315Z,13.56
2022-09-25T00:50:30.052Z,13.57
2022-09-25T00:53:03.996Z,13.57
2022-09-25T00:55:35.012Z,13.54
2022-09-25T00:58:04.156Z,13.55
2022-09-25T01:00:33.846Z,13.55
2022-09-25T01:03:04.424Z,13.53
2022-09-25T01:05:36.022Z,13.52
2022-09-25T01:08:06.932Z,13.51
2022-09-25T01:10:37.361Z,13.49
2022-09-25T01:13:06.202Z,13.43
2022-09-25T01:15:41.046Z,13.40
2022-09-25T01:18:19.048Z,13.39
2022-09-25T01:21:34.146Z,13.39
2022-09-25T01:24:39.714Z,13.40
2022-09-25T01:27:52.451Z,13.45
2022-09-25T01:30:22.289Z,13.46
2022-09-25T01:32:57.403Z,13.51
2022-09-25T01:35:35.501Z,13.51
2022-09-25T01:38:15.162Z,13.54
2022-09-25T01:40:49.406Z,13.50
2022-09-25T01:43:20.163Z,13.50
2022-09-25T01:45:52.951Z,13.47
2022-09-25T01:48:26.866Z,13.45
2022-09-25T01:50:58.980Z,13.48
2022-09-25T01:53:32.444Z,13.43
2022-09-25T01:56:04.164Z,13.39
2022-09-25T01:58:38.067Z,13.42
2022-09-25T02:01:11.384Z,13.44
2022-09-25T02:03:44.061Z,13.47
2022-09-25T02:06:16.901Z,13.48
2022-09-25T02:08:49.520Z,13.48
2022-09-25T02:11:17.291Z,13.50
2022-09-25T02:13:49.088Z,13.54
2022-09-25T02:16:23.039Z,13.53
2022-09-25T02:19:08.850Z,13.56
2022-09-25T02:21:44.093Z,13.61
2022-09-25T02:24:20.054Z,13.65
2022-09-25T02:26:48.688Z,13.66
2022-09-25T02:29:16.562Z,13.64
2022-09-25T02:31:49.325Z,13.60
2022-09-25T02:34:17.413Z,13.61
2022-09-25T02:36:45.535Z,13.63
2022-09-25T02:39:16.565Z,13.63
2022-09-25T02:42:04.777Z,13.51
2022-09-25T02:44:42.218Z,13.46
2022-09-25T02:47:22.382Z,13.48
2022-09-25T02:49:55.427Z,13.48
2022-09-25T02:52:31.091Z,13.50
2022-09-25T02:55:05.664Z,13.56
2022-09-25T02:57:40.024Z,13.58
2022-09-25T03:00:10.433Z,13.61
2022-09-25T03:02:40.673Z,13.63
2022-09-25T03:05:12.868Z,13.63
2022-09-25T03:07:55.118Z,13.63
2022-09-25T03:10:24.072Z,13.63
2022-09-25T03:12:51.729Z,13.63
2022-09-25T03:15:20.676Z,13.65
2022-09-25T03:17:52.172Z,13.63
2022-09-25T03:20:20.099Z,13.64
2022-09-25T03:22:48.020Z,13.65
2022-09-25T03:25:16.563Z,13.64
2022-09-25T03:27:44.268Z,13.67
2022-09-25T03:30:12.522Z,13.66
2022-09-25T03:32:42.122Z,13.65
2022-09-25T03:35:11.381Z,13.66
2022-09-25T03:37:39.158Z,13.66
2022-09-25T03:40:08.298Z,13.63
2022-09-25T03:42:36.117Z,13.57
2022-09-25T03:45:03.920Z,13.54
2022-09-25T03:47:31.600Z,13.53
2022-09-25T03:49:59.283Z,13.43
2022-09-25T03:52:28.334Z,13.43
2022-09-25T03:54:55.996Z,13.43
2022-09-25T03:57:23.905Z,13.43
2022-09-25T03:59:51.570Z,13.44
2022-09-25T04:02:19.514Z,13.40
2022-09-25T04:04:47.188Z,13.34
2022-09-25T04:07:14.871Z,13.31
2022-09-25T04:09:43.884Z,13.34
2022-09-25T04:12:11.548Z,13.30
2022-09-25T04:14:39.938Z,13.23
2022-09-25T04:17:07.758Z,13.23
2022-09-25T04:19:35.458Z,13.25
2022-09-25T04:22:03.133Z,13.21
2022-09-25T04:24:48.181Z,13.20
2022-09-25T04:27:19.161Z,13.21
2022-09-25T04:29:47.154Z,13.27
2022-09-25T04:32:34.136Z,13.31
2022-09-25T04:35:02.081Z,13.32
2022-09-25T04:37:30.124Z,13.32
2022-09-25T04:39:58.518Z,13.31
2022-09-25T04:42:27.639Z,13.34
2022-09-25T04:44:56.958Z,13.32
2022-09-25T04:47:28.215Z,13.32
2022-09-25T04:49:55.902Z,13.37
2022-09-25T04:52:24.019Z,13.38
2022-09-25T04:54:51.725Z,13.37
2022-09-25T04:57:45.726Z,13.36
2022-09-25T05:00:12.282Z,13.34
2022-09-25T05:02:40.058Z,13.34
2022-09-25T05:05:09.033Z,13.34
2022-09-25T05:07:36.743Z,13.34
2022-09-25T05:10:04.505Z,13.34
2022-09-25T05:12:32.073Z,13.35
2022-09-25T05:14:59.596Z,13.36
2022-09-25T05:17:28.491Z,13.39
2022-09-25T05:19:56.027Z,13.43
2022-09-25T05:22:23.573Z,13.43
2022-09-25T05:24:58.075Z,13.44
2022-09-25T05:27:26.458Z,13.47
2022-09-25T05:29:54.035Z,13.45
2022-09-25T05:32:22.829Z,13.44
2022-09-25T05:34:51.768Z,13.42
2022-09-25T05:37:20.017Z,13.41
2022-09-25T05:39:47.545Z,13.38
2022-09-25T05:42:19.173Z,13.36
2022-09-25T05:44:47.284Z,13.37
2022-09-25T05:47:14.828Z,13.41
2022-09-25T05:49:42.386Z,13.40
2022-09-25T05:52:11.283Z,13.40
2022-09-25T05:54:38.806Z,13.44
2022-09-25T05:57:06.509Z,13.49
2022-09-25T05:59:34.878Z,13.50
2022-09-25T06:02:02.474Z,13.50
2022-09-25T06:04:30.329Z,13.51
2022-09-25T06:07:02.474Z,13.52
2022-09-25T06:09:31.361Z,13.51
2022-09-25T06:11:59.068Z,13.58
2022-09-25T06:14:26.602Z,13.55
2022-09-25T06:16:54.608Z,13.55
2022-09-25T06:19:22.161Z,13.50
2022-09-25T06:21:50.021Z,13.48
2022-09-25T06:24:17.613Z,13.51
2022-09-25T06:26:47.124Z,13.56
2022-09-25T06:29:14.618Z,13.55
2022-09-25T06:31:42.206Z,13.58
2022-09-25T06:34:10.353Z,13.61
2022-09-25T06:36:38.025Z,13.63
2022-09-25T06:39:06.173Z,13.64
2022-09-25T06:41:33.681Z,13.65
2022-09-25T06:44:04.567Z,13.64
2022-09-25T06:46:32.230Z,13.70
2022-09-25T06:48:59.805Z,13.71
2022-09-25T06:51:32.224Z,13.68
2022-09-25T06:53:59.948Z,13.70
2022-09-25T06:56:27.492Z,13.69
2022-09-25T06:58:55.040Z,13.73
2022-09-25T07:01:23.976Z,13.72
2022-09-25T07:03:50.581Z,13.82
2022-09-25T07:06:20.641Z,13.86
2022-09-25T07:08:49.359Z,13.84
2022-09-25T07:11:18.600Z,13.99
2022-09-25T07:13:46.361Z,14.03
2022-09-25T07:16:15.553Z,14.06
2022-09-25T07:18:44.885Z,14.09
2022-09-25T07:21:14.242Z,14.14
2022-09-25T07:23:42.508Z,14.09
2022-09-25T07:26:12.736Z,14.03
2022-09-25T07:28:42.484Z,14.04
2022-09-25T07:31:15.684Z,14.08
2022-09-25T07:33:44.850Z,14.09
2022-09-25T07:36:12.984Z,14.07
2022-09-25T07:38:41.113Z,14.15
2022-09-25T07:41:11.263Z,14.17
2022-09-25T07:43:39.348Z,14.20
2022-09-25T07:46:07.734Z,14.25
2022-09-25T07:48:35.297Z,14.29
2022-09-25T07:51:06.906Z,14.28
2022-09-25T07:53:34.643Z,14.15
2022-09-25T07:56:06.624Z,14.15
2022-09-25T07:58:35.581Z,14.16
2022-09-25T08:01:06.152Z,14.01
2022-09-25T08:03:34.208Z,14.21
2022-09-25T08:06:02.937Z,14.35
2022-09-25T08:08:32.493Z,14.48
2022-09-25T08:11:02.545Z,14.58
2022-09-25T08:13:30.532Z,14.53
2022-09-25T08:15:58.121Z,14.56
2022-09-25T08:18:25.763Z,14.65
2022-09-25T08:20:53.369Z,14.79
2022-09-25T08:23:20.991Z,14.90
2022-09-25T08:25:50.219Z,14.92
2022-09-25T08:28:17.895Z,14.87
2022-09-25T08:30:45.608Z,14.87
2022-09-25T08:33:15.705Z,14.75
2022-09-25T08:35:43.977Z,14.64
2022-09-25T08:38:12.077Z,14.52
2022-09-25T08:40:47.639Z,14.42
2022-09-25T08:43:22.583Z,14.26
2022-09-25T08:46:08.948Z,14.14
2022-09-25T08:48:58.984Z,14.13
2022-09-25T08:51:28.384Z,14.29
2022-09-25T08:53:56.004Z,14.50
2022-09-25T08:56:25.599Z,14.65
2022-09-25T08:59:03.135Z,14.80
2022-09-25T09:01:40.891Z,15.00
2022-09-25T09:04:19.016Z,15.08
2022-09-25T09:07:08.046Z,15.05
2022-09-25T09:09:42.713Z,14.99
2022-09-25T09:12:14.698Z,14.86
2022-09-25T09:14:46.969Z,14.83
2022-09-25T09:17:19.041Z,15.01
2022-09-25T09:19:49.388Z,15.14
2022-09-25T09:22:25.168Z,15.13
2022-09-25T09:25:00.828Z,15.04
2022-09-25T09:27:42.531Z,15.01
2022-09-25T09:30:19.513Z,14.94
2022-09-25T09:33:01.294Z,14.98
2022-09-25T09:35:39.921Z,14.98
2022-09-25T09:38:18.050Z,14.87
2022-09-25T09:41:00.701Z,14.84
2022-09-25T09:43:39.974Z,14.91
2022-09-25T09:46:21.900Z,14.96
2022-09-25T09:49:04.293Z,15.10
2022-09-25T09:51:36.513Z,15.50
2022-09-25T09:54:08.201Z,15.78
2022-09-25T09:56:36.994Z,16.05
2022-09-25T09:59:07.852Z,16.22
2022-09-25T10:01:42.164Z,16.34
2022-09-25T10:04:13.794Z,16.35
2022-09-25T10:06:46.780Z,16.27
2022-09-25T10:09:16.687Z,16.26
2022-09-25T10:11:46.518Z,16.17
2022-09-25T10:14:21.107Z,16.08
2022-09-25T10:16:51.526Z,15.98
2022-09-25T10:19:22.573Z,15.94
2022-09-25T10:21:54.042Z,15.94
2022-09-25T10:24:49.772Z,15.86
2022-09-25T10:27:23.725Z,15.79
2022-09-25T10:30:02.841Z,15.73
2022-09-25T10:32:33.844Z,15.75
2022-09-25T10:35:02.111Z,15.68
2022-09-25T10:37:35.502Z,15.61
2022-09-25T10:40:04.487Z,15.56
2022-09-25T10:42:38.478Z,15.57
2022-09-25T10:45:38.443Z,15.54
2022-09-25T10:48:44.463Z,15.50
2022-09-25T10:51:17.600Z,15.51
2022-09-25T10:53:46.702Z,15.39
2022-09-25T10:56:18.079Z,15.28
2022-09-25T10:58:48.710Z,15.29
2022-09-25T11:01:17.174Z,15.34
2022-09-25T11:03:53.371Z,15.33
2022-09-25T11:06:24.739Z,15.35
2022-09-25T11:09:07.630Z,15.43
2022-09-25T11:11:37.561Z,15.60
2022-09-25T11:14:08.438Z,15.64
2022-09-25T11:16:51.246Z,15.65
2022-09-25T11:19:25.405Z,15.72
2022-09-25T11:22:01.144Z,15.68
2022-09-25T11:24:40.429Z,15.70
2022-09-25T11:27:14.269Z,15.64
2022-09-25T11:29:48.104Z,15.61
2022-09-25T11:32:23.509Z,15.73
2022-09-25T11:35:14.060Z,15.69
2022-09-25T11:37:51.281Z,15.72
2022-09-25T11:40:48.632Z,15.68
2022-09-25T11:43:21.888Z,15.54
2022-09-25T11:45:54.611Z,15.52
2022-09-25T11:48:27.434Z,15.47
2022-09-25T11:51:03.607Z,15.51
2022-09-25T11:53:40.099Z,15.48
2022-09-25T11:56:21.386Z,15.38
2022-09-25T11:59:04.358Z,15.36
2022-09-25T12:01:39.266Z,15.32
2022-09-25T12:04:41.647Z,15.36
2022-09-25T12:07:39.400Z,15.26
2022-09-25T12:10:26.590Z,15.34
2022-09-25T12:13:02.048Z,15.35
2022-09-25T12:15:49.266Z,15.48
2022-09-25T12:18:33.926Z,15.69
2022-09-25T12:21:06.156Z,15.91
2022-09-25T12:23:42.450Z,16.06
2022-09-25T12:26:23.840Z,16.13
2022-09-25T12:29:07.963Z,16.17
2022-09-25T12:31:49.580Z,16.34
2022-09-25T12:34:29.742Z,16.17
2022-09-25T12:37:07.150Z,16.34
2022-09-25T12:39:41.973Z,16.44
2022-09-25T12:42:17.703Z,16.55
2022-09-25T12:44:50.334Z,16.68
2022-09-25T12:47:26.216Z,17.01
2022-09-25T12:49:58.994Z,17.16
2022-09-25T12:52:31.431Z,17.62
2022-09-25T12:55:05.384Z,17.48
2022-09-25T12:57:38.977Z,17.63
2022-09-25T13:00:14.926Z,17.71
2022-09-25T13:02:49.823Z,17.65
2022-09-25T13:05:22.355Z,17.54
2022-09-25T13:07:55.648Z,17.26
2022-09-25T13:10:30.017Z,17.35
2022-09-25T13:13:01.811Z,17.50
2022-09-25T13:15:33.182Z,17.62
2022-09-25T13:18:01.089Z,17.76
2022-09-25T13:20:48.736Z,17.62
2022-09-25T13:23:20.216Z,17.70
2022-09-25T13:25:53.576Z,17.69
2022-09-25T13:28:22.747Z,17.82
2022-09-25T13:31:09.930Z,17.80
2022-09-25T13:33:50.421Z,17.95
2022-09-25T13:36:33.744Z,18.39
2022-09-25T13:39:22.753Z,19.53
2022-09-25T13:41:55.365Z,21.77
2022-09-25T13:44:50.071Z,22.10
2022-09-25T13:47:54.643Z,21.92
2022-09-25T13:50:31.682Z,21.01
2022-09-25T13:53:18.204Z,20.60
2022-09-25T13:56:23.243Z,20.14
2022-09-25T13:59:21.140Z,19.81
2022-09-25T14:01:51.581Z,19.53
2022-09-25T14:04:31.631Z,19.19
2022-09-25T14:07:11.857Z,18.77
2022-09-25T14:09:44.804Z,18.34
2022-09-25T14:12:22.686Z,18.81
2022-09-25T14:14:57.021Z,18.76
2022-09-25T14:17:29.741Z,18.60
2022-09-25T14:19:59.378Z,18.24
2022-09-25T14:22:34.425Z,17.65
2022-09-25T14:25:02.900Z,17.56
2022-09-25T14:27:30.842Z,17.55
2022-09-25T14:30:11.016Z,17.51
2022-09-25T14:32:55.542Z,17.58
2022-09-25T14:35:45.269Z,17.55
2022-09-25T14:38:40.441Z,17.51
2022-09-25T14:41:35.216Z,17.47
2022-09-25T14:44:25.690Z,17.36
2022-09-25T14:46:57.208Z,17.42
2022-09-25T14:49:28.583Z,17.40
2022-09-25T14:52:00.250Z,17.34
2022-09-25T14:54:33.242Z,17.20
2022-09-25T14:57:03.841Z,17.17
2022-09-25T14:59:37.763Z,17.03
2022-09-25T15:02:17.331Z,16.84
2022-09-25T15:04:44.973Z,16.70
2022-09-25T15:07:17.361Z,16.60
2022-09-25T15:09:48.281Z,16.52
2022-09-25T15:12:19.953Z,16.49
2022-09-25T15:15:01.618Z,16.46
2022-09-25T15:17:31.365Z,16.47
2022-09-25T15:20:01.736Z,16.36
2022-09-25T15:22:33.833Z,16.21
2022-09-25T15:25:06.166Z,15.97
2022-09-25T15:27:36.876Z,15.91
2022-09-25T15:30:05.077Z,15.85
2022-09-25T15:32:39.325Z,15.84
2022-09-25T15:35:15.778Z,15.80
2022-09-25T15:37:43.360Z,15.77
2022-09-25T15:40:22.696Z,15.68
2022-09-25T15:42:50.901Z,15.67
2022-09-25T15:45:39.534Z,15.60
2022-09-25T15:48:21.725Z,15.59
2022-09-25T15:50:49.984Z,15.52
2022-09-25T15:53:25.988Z,15.39
2022-09-25T15:56:04.643Z,15.28
2022-09-25T15:58:34.880Z,15.19
2022-09-25T16:01:21.916Z,15.07
2022-09-25T16:04:11.749Z,15.01
2022-09-25T16:06:42.707Z,14.98
2022-09-25T16:09:20.159Z,14.83
2022-09-25T16:11:48.789Z,14.82
2022-09-25T16:14:22.796Z,14.70
2022-09-25T16:16:51.868Z,14.60
2022-09-25T16:19:38.696Z,14.52
2022-09-25T16:22:20.137Z,14.40
2022-09-25T16:24:51.852Z,14.24
2022-09-25T16:27:33.818Z,14.29
2022-09-25T16:30:04.637Z,14.24
2022-09-25T16:32:32.783Z,14.22
2022-09-25T16:35:03.723Z,14.18
2022-09-25T16:37:34.136Z,14.23
2022-09-25T16:40:22.722Z,14.12
2022-09-25T16:42:51.379Z,14.08
2022-09-25T16:45:23.556Z,14.07
2022-09-25T16:47:51.694Z,14.05
2022-09-25T16:50:22.630Z,14.02
2022-09-25T16:52:50.557Z,14.02
2022-09-25T16:55:21.447Z,13.97
2022-09-25T16:57:49.032Z,14.00
2022-09-25T17:00:19.085Z,13.97
2022-09-25T17:02:48.604Z,13.93
2022-09-25T17:05:19.707Z,13.87
2022-09-25T17:07:50.695Z,13.86
2022-09-25T17:10:22.058Z,13.79
2022-09-25T17:12:53.971Z,13.76
2022-09-25T17:15:24.718Z,13.77
2022-09-25T17:17:54.979Z,13.68
2022-09-25T17:20:24.578Z,13.70
2022-09-25T17:22:54.705Z,13.66
2022-09-25T17:25:29.384Z,13.65
2022-09-25T17:27:56.902Z,13.62
2022-09-25T17:30:24.433Z,13.61
2022-09-25T17:32:52.442Z,13.61
2022-09-25T17:35:33.318Z,13.58
2022-09-25T17:38:02.288Z,13.55
2022-09-25T17:40:30.393Z,13.55
2022-09-25T17:42:58.269Z,13.61
2022-09-25T17:45:34.790Z,13.62
2022-09-25T17:48:02.844Z,13.67
2022-09-25T17:50:31.248Z,13.70
2022-09-25T17:52:59.221Z,13.73
2022-09-25T17:55:28.089Z,13.76
2022-09-25T17:57:56.772Z,13.78
2022-09-25T18:00:25.322Z,13.81
2022-09-25T18:02:53.094Z,13.83
2022-09-25T18:05:20.937Z,13.91
2022-09-25T18:07:48.670Z,13.95
2022-09-25T18:10:17.840Z,13.93
2022-09-25T18:12:46.843Z,13.90
2022-09-25T18:15:14.834Z,13.90
2022-09-25T18:17:42.451Z,13.88
2022-09-25T18:20:31.522Z,13.77
2022-09-25T18:22:59.209Z,13.71
2022-09-25T18:25:26.857Z,13.69
2022-09-25T18:27:55.739Z,13.65
2022-09-25T18:30:24.774Z,13.60
2022-09-25T18:32:52.377Z,13.56
2022-09-25T18:35:21.033Z,13.53
2022-09-25T18:37:48.859Z,13.51
2022-09-25T18:40:19.276Z,13.47
2022-09-25T18:42:48.161Z,13.45
2022-09-25T18:45:17.237Z,13.46
2022-09-25T18:47:46.633Z,13.46
2022-09-25T18:50:19.593Z,13.46
2022-09-25T18:52:48.213Z,13.44
2022-09-25T18:55:16.669Z,13.43
2022-09-25T18:57:44.218Z,13.40
2022-09-25T19:00:12.979Z,13.39
2022-09-25T19:02:42.516Z,13.40
2022-09-25T19:05:11.206Z,13.37
2022-09-25T19:07:38.872Z,13.37
2022-09-25T19:10:09.468Z,13.28
2022-09-25T19:12:37.081Z,13.28
2022-09-25T19:15:05.461Z,13.29
2022-09-25T19:17:33.378Z,13.28
2022-09-25T19:20:02.867Z,13.26
2022-09-25T19:22:31.161Z,13.27
2022-09-25T19:24:58.672Z,13.23
2022-09-25T19:27:28.924Z,13.24
2022-09-25T19:29:56.431Z,13.24
2022-09-25T19:32:25.241Z,13.24
2022-09-25T19:34:54.195Z,13.25
2022-09-25T19:37:26.262Z,13.22
2022-09-25T19:40:11.775Z,13.22
2022-09-25T19:42:39.350Z,13.21
2022-09-25T19:45:08.135Z,13.16
2022-09-25T19:47:35.657Z,13.16
2022-09-25T19:50:06.831Z,13.13
2022-09-25T19:52:35.817Z,13.16
2022-09-25T19:55:03.442Z,13.16
2022-09-25T19:57:31.013Z,13.20
2022-09-25T20:00:00.315Z,13.18
2022-09-25T20:02:27.929Z,13.17
2022-09-25T20:04:55.505Z,13.16
2022-09-25T20:07:23.070Z,13.13
2022-09-25T20:09:52.054Z,13.05
2022-09-25T20:12:19.602Z,12.99
2022-09-25T20:14:50.504Z,12.99
2022-09-25T20:17:18.012Z,13.03
2022-09-25T20:19:45.548Z,13.02
2022-09-25T20:22:13.061Z,12.99
2022-09-25T20:24:40.632Z,13.00
2022-09-25T20:27:09.524Z,13.01
2022-09-25T20:29:37.091Z,12.98
2022-09-25T20:32:04.747Z,13.03
2022-09-25T20:34:32.285Z,13.04
2022-09-25T20:36:59.804Z,13.00
2022-09-25T20:39:27.901Z,12.94
2022-09-25T20:41:56.021Z,12.96
2022-09-25T20:44:24.895Z,12.96
2022-09-25T20:46:52.399Z,12.97
2022-09-25T20:49:20.060Z,12.98
2022-09-25T20:51:47.646Z,13.01
2022-09-25T20:54:15.195Z,13.01
2022-09-25T20:56:44.755Z,13.01
2022-09-25T20:59:14.589Z,12.99
2022-09-25T21:01:43.594Z,12.97
2022-09-25T21:04:11.418Z,12.96
2022-09-25T21:06:40.948Z,12.94
2022-09-25T21:09:11.253Z,12.94
2022-09-25T21:11:40.267Z,12.94
2022-09-25T21:14:07.904Z,12.96
2022-09-25T21:16:35.541Z,12.93
2022-09-25T21:19:04.986Z,12.95
2022-09-25T21:21:34.104Z,12.94
2022-09-25T21:24:02.317Z,12.98
2022-09-25T21:26:31.784Z,12.98
2022-09-25T21:29:01.409Z,12.99
2022-09-25T21:31:31.590Z,12.96
2022-09-25T21:34:00.446Z,12.95
2022-09-25T21:36:30.205Z,12.86
2022-09-25T21:38:58.235Z,12.90
2022-09-25T21:41:27.556Z,12.97
2022-09-25T21:43:56.322Z,13.04
2022-09-25T21:46:25.003Z,13.07
2022-09-25T21:48:54.551Z,13.04
2022-09-25T21:51:24.589Z,13.04
2022-09-25T21:53:55.124Z,13.04
2022-09-25T21:56:24.362Z,13.02
2022-09-25T21:58:53.503Z,12.99
2022-09-25T22:01:23.693Z,12.91
2022-09-25T22:03:55.145Z,12.88
2022-09-25T22:06:24.934Z,12.92
2022-09-25T22:08:55.709Z,12.86
2022-09-25T22:11:23.400Z,12.87
2022-09-25T22:13:52.913Z,12.83
2022-09-25T22:16:22.827Z,12.79
2022-09-25T22:18:53.117Z,12.75
2022-09-25T22:21:24.141Z,12.77
2022-09-25T22:23:52.222Z,12.77
2022-09-25T22:26:21.853Z,12.74
2022-09-25T22:28:50.170Z,12.69
2022-09-25T22:31:20.138Z,12.62
2022-09-25T22:33:49.547Z,12.54
2022-09-25T22:36:17.077Z,12.44
2022-09-25T22:38:44.621Z,12.33
2022-09-25T22:41:13.648Z,12.25
2022-09-25T22:43:43.227Z,12.18
2022-09-25T22:46:12.738Z,12.12
2022-09-25T22:48:40.625Z,12.09
2022-09-25T22:51:11.312Z,12.06
2022-09-25T22:53:39.333Z,12.03
2022-09-25T22:56:12.219Z,11.96
2022-09-25T22:58:39.785Z,11.89
2022-09-25T23:01:12.747Z,11.84
2022-09-25T23:03:40.529Z,11.75
2022-09-25T23:06:08.598Z,11.72
2022-09-25T23:08:36.556Z,11.68
2022-09-25T23:11:07.882Z,11.62
2022-09-25T23:13:36.841Z,11.54
2022-09-25T23:16:07.071Z,11.49
2022-09-25T23:18:37.110Z,11.43
2022-09-25T23:21:05.314Z,11.39
2022-09-25T23:23:33.328Z,11.33
2022-09-25T23:26:06.713Z,11.27
2022-09-25T23:28:34.846Z,11.17
2022-09-25T23:31:07.180Z,11.14
2022-09-25T23:33:36.940Z,11.08
2022-09-25T23:36:06.483Z,11.08
2022-09-25T23:38:34.717Z,11.00
2022-09-25T23:41:02.705Z,10.94
2022-09-25T23:43:30.359Z,10.87
2022-09-25T23:45:57.972Z,10.82
2022-09-25T23:48:25.527Z,10.80
2022-09-25T23:50:54.389Z,10.74
2022-09-25T23:53:21.880Z,10.69
2022-09-25T23:55:50.936Z,10.61
2022-09-25T23:58:18.789Z,10.61
